createdAt,value
2023-05-12T00:00:12.247Z,86.90
2023-05-12T00:02:38.770Z,87.10
2023-05-12T00:05:05.321Z,87.10
2023-05-12T00:07:31.796Z,87.30
2023-05-12T00:09:58.229Z,87.40
2023-05-12T00:12:24.708Z,87.50
2023-05-12T00:14:51.119Z,87.50
2023-05-12T00:17:17.542Z,87.50
2023-05-12T00:19:43.988Z,87.30
2023-05-12T00:22:10.716Z,87.20
2023-05-12T00:24:37.177Z,87.30
2023-05-12T00:27:03.610Z,87.20
2023-05-12T00:29:29.999Z,87.30
2023-05-12T00:31:56.560Z,87.50
2023-05-12T00:34:23.021Z,87.60
2023-05-12T00:36:49.445Z,87.50
2023-05-12T00:39:15.890Z,87.40
2023-05-12T00:41:42.282Z,88.10
2023-05-12T00:44:08.682Z,87.50
2023-05-12T00:46:35.068Z,87.70
2023-05-12T00:49:01.510Z,87.80
2023-05-12T00:51:28.012Z,87.70
2023-05-12T00:53:54.415Z,87.80
2023-05-12T00:56:20.850Z,87.70
2023-05-12T00:58:47.348Z,87.80
2023-05-12T01:01:13.864Z,87.80
2023-05-12T01:03:40.414Z,87.90
2023-05-12T01:06:06.876Z,88.00
2023-05-12T01:08:33.319Z,88.10
2023-05-12T01:10:59.701Z,88.30
2023-05-12T01:13:26.145Z,88.30
2023-05-12T01:15:52.618Z,88.50
2023-05-12T01:18:19.072Z,88.50
2023-05-12T01:20:45.767Z,88.40
2023-05-12T01:23:12.249Z,88.50
2023-05-12T01:25:38.699Z,88.50
2023-05-12T01:28:05.215Z,88.60
2023-05-12T01:30:31.626Z,88.60
2023-05-12T01:32:58.097Z,88.60
2023-05-12T01:35:24.548Z,88.50
2023-05-12T01:37:50.982Z,88.60
2023-05-12T01:40:17.611Z,88.60
2023-05-12T01:42:44.144Z,88.70
2023-05-12T01:45:10.656Z,88.70
2023-05-12T01:47:37.077Z,88.70
2023-05-12T01:50:03.546Z,88.80
2023-05-12T01:52:29.924Z,88.80
2023-05-12T01:54:56.355Z,88.90
2023-05-12T01:57:22.932Z,88.90
2023-05-12T01:59:49.453Z,88.90
2023-05-12T02:02:16.034Z,89.00
2023-05-12T02:04:42.518Z,89.10
2023-05-12T02:07:08.908Z,89.20
2023-05-12T02:09:35.365Z,89.20
2023-05-12T02:12:01.847Z,89.20
2023-05-12T02:14:28.313Z,89.20
2023-05-12T02:16:54.747Z,89.20
2023-05-12T02:19:21.164Z,89.40
2023-05-12T02:21:47.543Z,89.50
2023-05-12T02:24:14.992Z,89.40
2023-05-12T02:26:41.471Z,89.30
2023-05-12T02:29:07.978Z,89.30
2023-05-12T02:31:34.370Z,89.30
2023-05-12T02:34:00.839Z,89.50
2023-05-12T02:36:27.216Z,89.70
2023-05-12T02:38:53.650Z,89.90
2023-05-12T02:41:20.038Z,90.00
2023-05-12T02:43:46.795Z,90.00
2023-05-12T02:46:13.199Z,90.00
2023-05-12T02:48:39.657Z,90.00
2023-05-12T02:51:06.038Z,90.10
2023-05-12T02:53:32.518Z,90.10
2023-05-12T02:55:58.968Z,90.20
2023-05-12T02:58:25.396Z,90.10
2023-05-12T03:00:59.747Z,90.20
2023-05-12T03:03:33.462Z,90.30
2023-05-12T03:05:59.886Z,90.30
2023-05-12T03:08:26.318Z,90.30
2023-05-12T03:10:52.774Z,90.30
2023-05-12T03:13:19.262Z,90.20
2023-05-12T03:15:45.959Z,90.30
2023-05-12T03:18:12.454Z,90.30
2023-05-12T03:20:38.891Z,90.30
2023-05-12T03:23:05.333Z,90.30
2023-05-12T03:25:31.820Z,90.30
2023-05-12T03:27:58.261Z,90.30
2023-05-12T03:30:24.636Z,90.30
2023-05-12T03:32:51.107Z,90.40
2023-05-12T03:35:17.554Z,90.40
2023-05-12T03:37:44.045Z,90.40
2023-05-12T03:40:10.500Z,90.40
2023-05-12T03:42:36.889Z,90.40
2023-05-12T03:45:03.491Z,90.50
2023-05-12T03:47:30.080Z,90.50
2023-05-12T03:49:56.682Z,90.50
2023-05-12T03:52:23.081Z,90.50
2023-05-12T03:54:49.519Z,90.50
2023-05-12T03:57:15.979Z,90.50
2023-05-12T03:59:42.449Z,90.60
2023-05-12T04:02:08.880Z,90.90
2023-05-12T04:04:35.369Z,90.60
2023-05-12T04:07:01.797Z,90.60
2023-05-12T04:09:28.188Z,90.60
2023-05-12T04:11:54.626Z,90.60
2023-05-12T04:14:29.014Z,90.60
2023-05-12T04:17:02.060Z,90.70
2023-05-12T04:19:28.460Z,90.70
2023-05-12T04:21:54.930Z,90.70
2023-05-12T04:24:21.424Z,90.80
2023-05-12T04:26:47.855Z,90.80
2023-05-12T04:29:14.242Z,90.80
2023-05-12T04:31:40.729Z,90.80
2023-05-12T04:34:07.176Z,90.80
2023-05-12T04:36:33.536Z,90.80
2023-05-12T04:38:59.988Z,90.80
2023-05-12T04:41:26.397Z,90.70
2023-05-12T04:46:22.164Z,90.80
2023-05-12T04:48:48.568Z,90.80
2023-05-12T04:51:15.015Z,90.80
2023-05-12T04:53:41.524Z,90.80
2023-05-12T04:56:07.988Z,90.70
2023-05-12T04:58:34.393Z,90.60
2023-05-12T05:01:00.936Z,90.60
2023-05-12T05:03:27.510Z,90.70
2023-05-12T05:05:54.096Z,90.70
2023-05-12T05:08:20.533Z,90.70
2023-05-12T05:10:46.966Z,90.70
2023-05-12T05:13:13.418Z,90.70
2023-05-12T05:15:39.828Z,90.70
2023-05-12T05:18:06.406Z,90.70
2023-05-12T05:20:33.046Z,90.70
2023-05-12T05:22:59.653Z,90.80
2023-05-12T05:25:26.045Z,90.80
2023-05-12T05:27:52.419Z,90.80
2023-05-12T05:30:18.819Z,90.70
2023-05-12T05:32:45.388Z,90.70
2023-05-12T05:35:12.034Z,90.70
2023-05-12T05:37:38.452Z,90.70
2023-05-12T05:40:04.861Z,90.70
2023-05-12T05:42:31.251Z,90.70
2023-05-12T05:44:57.656Z,90.90
2023-05-12T05:47:24.085Z,90.60
2023-05-12T05:49:50.500Z,90.60
2023-05-12T05:52:16.946Z,90.50
2023-05-12T05:54:43.348Z,90.40
2023-05-12T05:57:09.816Z,90.40
2023-05-12T05:59:36.239Z,90.40
2023-05-12T06:02:02.767Z,90.70
2023-05-12T06:04:29.229Z,90.40
2023-05-12T06:06:55.684Z,90.40
2023-05-12T06:09:22.107Z,90.40
2023-05-12T06:11:48.570Z,90.40
2023-05-12T06:14:15.027Z,90.40
2023-05-12T06:16:41.423Z,90.30
2023-05-12T06:19:08.079Z,90.20
2023-05-12T06:21:34.709Z,90.10
2023-05-12T06:24:01.171Z,90.10
2023-05-12T06:26:27.626Z,90.00
2023-05-12T06:28:54.064Z,90.00
2023-05-12T06:31:20.533Z,90.00
2023-05-12T06:33:47.019Z,90.00
2023-05-12T06:36:13.469Z,89.90
2023-05-12T06:38:39.917Z,89.80
2023-05-12T06:41:06.307Z,89.60
2023-05-12T06:43:32.793Z,89.60
2023-05-12T06:45:59.297Z,89.50
2023-05-12T06:48:25.711Z,89.30
2023-05-12T06:50:52.115Z,89.30
2023-05-12T06:53:18.582Z,89.10
2023-05-12T06:55:44.982Z,89.00
2023-05-12T06:58:11.383Z,88.80
2023-05-12T07:00:37.988Z,88.70
2023-05-12T07:03:04.564Z,88.50
2023-05-12T07:05:31.145Z,88.20
2023-05-12T07:07:57.598Z,88.10
2023-05-12T07:10:24.051Z,88.00
2023-05-12T07:12:50.542Z,87.80
2023-05-12T07:15:17.002Z,87.70
2023-05-12T07:17:43.425Z,87.60
2023-05-12T07:20:09.866Z,87.50
2023-05-12T07:22:38.449Z,87.30
2023-05-12T07:25:05.426Z,87.00
2023-05-12T07:27:31.871Z,86.80
2023-05-12T07:29:58.323Z,86.70
2023-05-12T07:32:24.823Z,86.70
2023-05-12T07:34:51.267Z,86.80
2023-05-12T07:37:17.713Z,86.70
2023-05-12T07:39:44.180Z,86.60
2023-05-12T07:42:10.582Z,86.40
2023-05-12T07:44:37.006Z,86.40
2023-05-12T07:47:03.513Z,86.30
2023-05-12T07:49:29.944Z,86.10
2023-05-12T07:51:56.393Z,85.90
2023-05-12T07:54:22.863Z,85.60
2023-05-12T07:56:49.370Z,85.50
2023-05-12T07:59:15.966Z,85.30
2023-05-12T08:01:42.530Z,85.10
2023-05-12T08:04:09.006Z,85.00
2023-05-12T08:06:35.460Z,84.70
2023-05-12T08:09:01.892Z,84.60
2023-05-12T08:11:28.305Z,84.30
2023-05-12T08:13:54.733Z,84.10
2023-05-12T08:16:21.274Z,83.90
2023-05-12T08:18:47.774Z,83.50
2023-05-12T08:21:14.230Z,83.20
2023-05-12T08:23:40.694Z,82.80
2023-05-12T08:26:07.146Z,82.60
2023-05-12T08:28:33.575Z,82.40
2023-05-12T08:31:02.692Z,81.80
2023-05-12T08:33:30.600Z,81.40
2023-05-12T08:35:57.074Z,81.40
2023-05-12T08:38:23.518Z,81.00
2023-05-12T08:40:49.980Z,80.90
2023-05-12T08:43:16.428Z,80.60
2023-05-12T08:45:42.811Z,80.50
2023-05-12T08:48:09.248Z,80.40
2023-05-12T08:50:35.752Z,80.30
2023-05-12T08:53:02.187Z,79.70
2023-05-12T08:55:32.781Z,79.60
2023-05-12T08:58:00.441Z,79.50
2023-05-12T09:00:26.992Z,79.30
2023-05-12T09:02:54.724Z,79.00
2023-05-12T09:05:21.724Z,78.50
2023-05-12T09:07:48.476Z,78.60
2023-05-12T09:10:25.908Z,78.50
2023-05-12T09:12:59.803Z,78.20
2023-05-12T09:15:26.201Z,77.70
2023-05-12T09:17:52.685Z,77.10
2023-05-12T09:20:30.459Z,76.80
2023-05-12T09:22:57.645Z,76.10
2023-05-12T09:25:24.222Z,75.40
2023-05-12T09:27:50.682Z,74.70
2023-05-12T09:30:17.217Z,74.00
2023-05-12T09:32:43.705Z,73.70
2023-05-12T09:35:10.210Z,73.20
2023-05-12T09:37:36.969Z,72.80
2023-05-12T09:40:03.538Z,72.10
2023-05-12T09:42:29.934Z,72.10
2023-05-12T09:44:56.337Z,71.70
2023-05-12T09:47:22.785Z,71.20
2023-05-12T09:49:49.291Z,70.60
2023-05-12T09:52:15.825Z,69.80
2023-05-12T09:54:42.237Z,69.30
2023-05-12T09:57:08.678Z,68.90
2023-05-12T09:59:35.142Z,68.70
2023-05-12T10:02:01.750Z,68.80
2023-05-12T10:04:28.268Z,68.10
2023-05-12T10:06:54.747Z,68.30
2023-05-12T10:09:21.135Z,68.20
2023-05-12T10:11:47.546Z,67.70
2023-05-12T10:14:13.923Z,67.40
2023-05-12T10:16:40.538Z,68.00
2023-05-12T10:19:07.116Z,68.20
2023-05-12T10:21:33.540Z,68.70
2023-05-12T10:23:59.989Z,67.90
2023-05-12T10:26:26.439Z,67.60
2023-05-12T10:28:52.830Z,67.00
2023-05-12T10:31:19.301Z,66.40
2023-05-12T10:33:46.109Z,66.40
2023-05-12T10:36:12.546Z,65.60
2023-05-12T10:38:38.965Z,65.10
2023-05-12T10:41:05.413Z,64.70
2023-05-12T10:43:31.830Z,64.20
2023-05-12T10:45:58.319Z,63.70
2023-05-12T10:48:24.798Z,64.00
2023-05-12T10:50:51.262Z,62.90
2023-05-12T10:53:17.704Z,62.60
2023-05-12T10:55:44.440Z,62.80
2023-05-12T10:58:11.523Z,62.50
2023-05-12T11:00:38.933Z,61.80
2023-05-12T11:03:09.867Z,61.40
2023-05-12T11:05:37.754Z,61.10
2023-05-12T11:08:04.773Z,60.90
2023-05-12T11:10:32.431Z,60.60
2023-05-12T11:12:59.826Z,59.50
2023-05-12T11:15:26.300Z,60.00
2023-05-12T11:17:52.740Z,59.90
2023-05-12T11:20:19.229Z,59.50
2023-05-12T11:22:45.842Z,59.20
2023-05-12T11:25:12.600Z,59.30
2023-05-12T11:27:39.127Z,59.30
2023-05-12T11:30:05.557Z,59.20
2023-05-12T11:32:31.973Z,58.80
2023-05-12T11:34:58.419Z,58.20
2023-05-12T11:37:24.884Z,58.00
2023-05-12T11:39:51.314Z,58.80
2023-05-12T11:42:20.209Z,58.80
2023-05-12T11:44:47.636Z,58.70
2023-05-12T11:47:14.143Z,58.50
2023-05-12T11:49:40.600Z,58.30
2023-05-12T11:52:07.064Z,58.50
2023-05-12T11:54:33.507Z,57.80
2023-05-12T11:56:59.972Z,57.70
2023-05-12T11:59:26.435Z,57.00
2023-05-12T12:01:52.898Z,56.60
2023-05-12T12:04:19.319Z,56.10
2023-05-12T12:06:45.976Z,55.80
2023-05-12T12:09:12.397Z,55.70
2023-05-12T12:11:38.860Z,55.50
2023-05-12T12:14:05.242Z,55.50
2023-05-12T12:16:31.740Z,54.80
2023-05-12T12:18:58.344Z,54.60
2023-05-12T12:21:24.845Z,54.60
2023-05-12T12:23:51.837Z,54.70
2023-05-12T12:26:18.343Z,53.60
2023-05-12T12:28:44.756Z,53.40
2023-05-12T12:31:11.217Z,52.90
2023-05-12T12:33:37.786Z,52.20
2023-05-12T12:36:04.380Z,52.50
2023-05-12T12:38:30.834Z,52.60
2023-05-12T12:40:57.225Z,52.40
2023-05-12T12:43:23.685Z,51.80
2023-05-12T12:45:50.080Z,51.00
2023-05-12T12:48:16.460Z,51.20
2023-05-12T12:50:42.855Z,51.30
2023-05-12T12:53:09.277Z,50.70
2023-05-12T12:55:35.718Z,50.30
2023-05-12T12:58:02.110Z,50.60
2023-05-12T13:00:28.555Z,50.50
2023-05-12T13:02:55.077Z,49.80
2023-05-12T13:05:21.718Z,49.00
2023-05-12T13:07:48.378Z,48.80
2023-05-12T13:10:14.845Z,48.20
2023-05-12T13:12:41.332Z,48.40
2023-05-12T13:15:07.799Z,48.10
2023-05-12T13:17:34.289Z,48.10
2023-05-12T13:20:00.715Z,47.90
2023-05-12T13:22:27.095Z,47.40
2023-05-12T13:24:53.528Z,46.30
2023-05-12T13:27:19.985Z,46.00
2023-05-12T13:29:46.384Z,46.50
2023-05-12T13:32:12.814Z,47.40
2023-05-12T13:34:39.237Z,46.80
2023-05-12T13:37:05.680Z,45.70
2023-05-12T13:39:32.129Z,45.40
2023-05-12T13:41:58.562Z,45.20
2023-05-12T13:44:24.976Z,45.00
2023-05-12T13:46:51.446Z,44.60
2023-05-12T13:49:17.918Z,44.10
2023-05-12T13:51:44.723Z,43.50
2023-05-12T13:54:11.120Z,43.20
2023-05-12T13:56:37.532Z,44.00
2023-05-12T13:59:03.985Z,43.80
2023-05-12T14:01:30.787Z,43.10
2023-05-12T14:03:57.295Z,44.10
2023-05-12T14:06:23.742Z,44.60
2023-05-12T14:08:50.181Z,45.00
2023-05-12T14:11:16.592Z,45.30
2023-05-12T14:13:42.995Z,45.70
2023-05-12T14:16:09.459Z,46.10
2023-05-12T14:18:35.971Z,45.60
2023-05-12T14:21:02.402Z,45.20
2023-05-12T14:23:28.817Z,44.90
2023-05-12T14:25:55.254Z,45.10
2023-05-12T14:28:21.758Z,44.70
2023-05-12T14:30:48.376Z,45.30
2023-05-12T14:33:15.075Z,45.40
2023-05-12T14:35:42.203Z,44.90
2023-05-12T14:38:09.649Z,45.40
2023-05-12T14:40:36.813Z,45.50
2023-05-12T14:43:04.408Z,45.40
2023-05-12T14:45:31.016Z,45.20
2023-05-12T14:47:57.598Z,44.70
2023-05-12T14:50:24.075Z,44.80
2023-05-12T14:52:50.503Z,44.20
2023-05-12T14:55:17.041Z,43.50
2023-05-12T14:57:43.498Z,43.70
2023-05-12T15:00:09.975Z,43.70
2023-05-12T15:02:36.544Z,43.10
2023-05-12T15:05:03.394Z,42.80
2023-05-12T15:07:29.815Z,42.50
2023-05-12T15:09:56.197Z,43.10
2023-05-12T15:12:22.611Z,43.40
2023-05-12T15:14:49.039Z,43.40
2023-05-12T15:17:15.631Z,42.40
2023-05-12T15:19:42.195Z,42.80
2023-05-12T15:22:08.591Z,42.80
2023-05-12T15:24:35.026Z,42.80
2023-05-12T15:27:01.404Z,42.70
2023-05-12T15:29:27.846Z,41.60
2023-05-12T15:31:54.396Z,41.30
2023-05-12T15:34:21.000Z,41.00
2023-05-12T15:36:47.395Z,41.60
2023-05-12T15:39:13.832Z,42.20
2023-05-12T15:41:40.224Z,42.70
2023-05-12T15:44:06.833Z,43.20
2023-05-12T15:46:33.313Z,43.20
2023-05-12T15:48:59.774Z,43.40
2023-05-12T15:51:26.218Z,43.60
2023-05-12T15:53:52.659Z,43.80
2023-05-12T15:56:19.122Z,43.70
2023-05-12T15:58:45.560Z,43.50
2023-05-12T16:01:11.985Z,42.30
2023-05-12T16:03:38.570Z,41.20
2023-05-12T16:06:06.969Z,41.20
2023-05-12T16:08:33.564Z,40.70
2023-05-12T16:11:00.043Z,40.80
2023-05-12T16:13:26.446Z,40.20
2023-05-12T16:15:52.876Z,40.40
2023-05-12T16:18:19.326Z,40.30
2023-05-12T16:20:45.810Z,40.50
2023-05-12T16:23:12.258Z,40.80
2023-05-12T16:25:38.701Z,41.10
2023-05-12T16:28:05.111Z,41.20
2023-05-12T16:30:31.563Z,40.50
2023-05-12T16:32:58.065Z,40.40
2023-05-12T16:35:24.725Z,40.30
2023-05-12T16:37:51.351Z,40.60
2023-05-12T16:40:17.801Z,40.30
2023-05-12T16:42:44.228Z,40.80
2023-05-12T16:45:10.635Z,40.20
2023-05-12T16:47:37.062Z,40.10
2023-05-12T16:50:03.526Z,40.40
2023-05-12T16:52:29.927Z,40.60
2023-05-12T16:54:56.332Z,41.10
2023-05-12T16:57:22.735Z,41.10
2023-05-12T16:59:49.116Z,41.00
2023-05-12T17:02:15.570Z,41.30
2023-05-12T17:04:42.023Z,41.40
2023-05-12T17:07:08.431Z,41.30
2023-05-12T17:09:34.842Z,41.50
2023-05-12T17:12:01.252Z,41.50
2023-05-12T17:14:27.727Z,41.70
2023-05-12T17:16:54.180Z,41.60
2023-05-12T17:19:20.757Z,41.90
2023-05-12T17:21:47.420Z,42.10
2023-05-12T17:24:13.821Z,42.10
2023-05-12T17:26:40.190Z,42.30
2023-05-12T17:29:06.667Z,42.40
2023-05-12T17:31:33.076Z,42.60
2023-05-12T17:33:59.575Z,42.50
2023-05-12T17:36:26.041Z,42.60
2023-05-12T17:38:52.421Z,42.70
2023-05-12T17:41:18.849Z,43.10
2023-05-12T17:43:45.625Z,43.20
2023-05-12T17:46:11.994Z,43.40
2023-05-12T17:48:38.567Z,43.60
2023-05-12T17:51:05.189Z,43.90
2023-05-12T17:53:31.577Z,44.00
2023-05-12T17:55:57.961Z,44.70
2023-05-12T17:58:24.437Z,44.10
2023-05-12T18:00:50.988Z,44.30
2023-05-12T18:03:17.629Z,44.40
2023-05-12T18:05:44.241Z,44.80
2023-05-12T18:08:10.678Z,44.80
2023-05-12T18:10:37.124Z,45.00
2023-05-12T18:13:03.591Z,45.00
2023-05-12T18:15:30.037Z,45.80
2023-05-12T18:17:56.475Z,45.30
2023-05-12T18:20:22.892Z,45.60
2023-05-12T18:22:49.373Z,45.80
2023-05-12T18:25:15.821Z,46.00
2023-05-12T18:27:42.297Z,46.10
2023-05-12T18:30:08.788Z,46.10
2023-05-12T18:32:35.313Z,46.40
2023-05-12T18:35:01.976Z,46.50
2023-05-12T18:37:28.438Z,46.50
2023-05-12T18:39:54.873Z,46.60
2023-05-12T18:42:21.310Z,46.80
2023-05-12T18:44:47.817Z,46.90
2023-05-12T18:47:14.269Z,47.30
2023-05-12T18:49:40.668Z,47.70
2023-05-12T18:52:07.127Z,48.00
2023-05-12T18:54:33.627Z,48.30
2023-05-12T18:57:00.052Z,48.70
2023-05-12T18:59:26.487Z,48.90
2023-05-12T19:01:53.017Z,49.20
2023-05-12T19:04:19.482Z,49.60
2023-05-12T19:06:45.924Z,50.40
2023-05-12T19:09:12.430Z,51.10
2023-05-12T19:11:39.093Z,51.90
2023-05-12T19:14:05.532Z,52.50
2023-05-12T19:16:33.703Z,53.10
2023-05-12T19:19:01.577Z,53.50
2023-05-12T19:21:28.073Z,53.80
2023-05-12T19:23:54.483Z,54.00
2023-05-12T19:26:20.940Z,54.20
2023-05-12T19:28:47.337Z,54.50
2023-05-12T19:31:13.831Z,54.60
2023-05-12T19:33:40.308Z,54.80
2023-05-12T19:36:06.769Z,54.90
2023-05-12T19:38:33.212Z,55.00
2023-05-12T19:40:59.664Z,55.10
2023-05-12T19:43:26.094Z,55.20
2023-05-12T19:45:52.489Z,55.40
2023-05-12T19:48:18.886Z,55.60
2023-05-12T19:50:45.560Z,55.70
2023-05-12T19:53:11.982Z,55.90
2023-05-12T19:55:38.385Z,56.10
2023-05-12T19:58:04.844Z,56.40
2023-05-12T20:00:31.306Z,56.70
2023-05-12T20:02:57.827Z,57.10
2023-05-12T20:05:24.386Z,57.30
2023-05-12T20:07:50.787Z,57.50
2023-05-12T20:10:17.237Z,57.80
2023-05-12T20:12:43.707Z,57.80
2023-05-12T20:15:10.192Z,57.90
2023-05-12T20:17:36.814Z,57.90
2023-05-12T20:20:03.404Z,58.00
2023-05-12T20:22:29.789Z,58.00
2023-05-12T20:24:56.184Z,58.00
2023-05-12T20:27:22.559Z,58.10
2023-05-12T20:29:49.009Z,58.20
2023-05-12T20:32:15.659Z,58.30
2023-05-12T20:34:42.085Z,58.40
2023-05-12T20:37:08.504Z,58.40
2023-05-12T20:39:34.965Z,58.50
2023-05-12T20:42:01.560Z,58.50
2023-05-12T20:44:28.034Z,58.60
2023-05-12T20:46:54.559Z,58.80
2023-05-12T20:49:21.091Z,58.80
2023-05-12T20:51:47.558Z,58.90
2023-05-12T20:54:13.962Z,59.00
2023-05-12T20:56:40.374Z,59.10
2023-05-12T20:59:06.848Z,59.00
2023-05-12T21:01:33.328Z,59.00
2023-05-12T21:03:59.740Z,59.00
2023-05-12T21:06:26.147Z,59.10
2023-05-12T21:08:52.613Z,59.10
2023-05-12T21:11:19.080Z,59.20
2023-05-12T21:13:45.610Z,59.30
2023-05-12T21:16:12.025Z,59.30
2023-05-12T21:18:38.509Z,59.50
2023-05-12T21:21:04.997Z,59.50
2023-05-12T21:23:31.386Z,59.60
2023-05-12T21:25:57.832Z,59.60
2023-05-12T21:28:24.324Z,59.70
2023-05-12T21:30:50.771Z,59.80
2023-05-12T21:33:17.215Z,59.70
2023-05-12T21:35:43.607Z,59.80
2023-05-12T21:38:10.049Z,60.10
2023-05-12T21:40:36.703Z,60.20
2023-05-12T21:43:03.389Z,60.30
2023-05-12T21:45:29.780Z,60.30
2023-05-12T21:47:56.262Z,60.40
2023-05-12T21:50:22.894Z,60.30
2023-05-12T21:52:49.573Z,60.40
2023-05-12T21:55:16.051Z,60.60
2023-05-12T21:57:42.480Z,60.60
2023-05-12T22:00:08.974Z,60.60
2023-05-12T22:02:35.387Z,60.60
2023-05-12T22:05:01.832Z,60.70
2023-05-12T22:07:28.287Z,60.70
2023-05-12T22:09:54.714Z,60.80
2023-05-12T22:12:21.094Z,60.80
2023-05-12T22:14:47.544Z,60.90
2023-05-12T22:17:13.940Z,60.90
2023-05-12T22:19:40.412Z,60.90
2023-05-12T22:22:06.879Z,60.80
2023-05-12T22:24:35.412Z,60.80
2023-05-12T22:27:01.816Z,60.90
2023-05-12T22:29:28.195Z,61.00
2023-05-12T22:31:54.579Z,61.10
2023-05-12T22:34:20.963Z,61.20
2023-05-12T22:36:47.445Z,61.20
2023-05-12T22:39:14.055Z,61.30
2023-05-12T22:41:40.500Z,61.50
2023-05-12T22:44:06.956Z,61.50
2023-05-12T22:46:33.398Z,61.60
2023-05-12T22:48:59.807Z,61.70
2023-05-12T22:51:26.213Z,61.90
2023-05-12T22:53:52.659Z,62.00
2023-05-12T22:56:19.127Z,62.20
2023-05-12T22:58:45.718Z,62.30
2023-05-12T23:01:12.215Z,62.40
2023-05-12T23:03:38.679Z,62.40
2023-05-12T23:06:05.131Z,62.50
2023-05-12T23:08:31.575Z,62.50
2023-05-12T23:10:58.002Z,62.70
2023-05-12T23:13:24.513Z,62.70
2023-05-12T23:15:50.967Z,62.80
2023-05-12T23:18:17.383Z,62.90
2023-05-12T23:20:43.767Z,62.90
2023-05-12T23:23:10.182Z,63.10
2023-05-12T23:25:36.763Z,63.10
2023-05-12T23:28:03.389Z,63.20
2023-05-12T23:30:29.801Z,63.20
2023-05-12T23:32:56.309Z,63.20
2023-05-12T23:35:22.737Z,63.20
2023-05-12T23:37:49.176Z,63.10
2023-05-12T23:40:15.768Z,63.20
2023-05-12T23:42:42.236Z,63.30
2023-05-12T23:45:08.735Z,63.30
2023-05-12T23:47:35.253Z,63.40
2023-05-12T23:50:01.771Z,63.40
2023-05-12T23:52:28.180Z,64.10
2023-05-12T23:54:54.630Z,63.60
2023-05-12T23:57:21.086Z,63.50
2023-05-12T23:59:47.530Z,63.60
